OING

Gorgan Airport

Airport
ICAO code
OING
IATA Code
GBT
Summary
ICAO Region
MID
ICAO Territory
Location

Amir Abad, Golestan

Serving
Grgan
Elevation
-24 ft
Coordinates
36° 54' 29" N , 54° 24' 36" E
KCC
Metar
Observation
OING 070300Z 01004KT CAVOK M01/M02 Q1028
Station
Gorgan
Date/Time
2022-12-07 03:00:00
Wind direction
10°
Wind speed
04 kts
Lowest cloud amount
clouds and visibility OK
Temperature
-1°C
Dew point
-2°C
Humidity
92%
QNH
1028 hPa
Weather condition
n/a

International airport 6km north of the city of Gorgan, Iran.

Climatology

Mediterranean climate (Köppen climate classification Csa).

Runways

Designator Length Width Surface Rops
14/32 2298 45 ASP No/No

Airport map

Aerial View

SKYbrary Partners:

Safety knowledge contributed by: